sensor_id;sensor_type;location;lat;lon;timestamp;P1;durP1;ratioP1;P2;durP2;ratioP2
823;SDS011;373;49.342;8.146;2023-11-18T00:02:09;4.82;;;4.30;;
823;SDS011;373;49.342;8.146;2023-11-18T00:07:38;5.15;;;4.57;;
823;SDS011;373;49.342;8.146;2023-11-18T00:10:38;5.22;;;3.88;;
823;SDS011;373;49.342;8.146;2023-11-18T00:14:36;3.85;;;3.45;;
823;SDS011;373;49.342;8.146;2023-11-18T00:21:00;4.00;;;3.70;;
823;SDS011;373;49.342;8.146;2023-11-18T00:24:15;5.28;;;4.78;;
823;SDS011;373;49.342;8.146;2023-11-18T00:26:48;4.03;;;3.63;;
823;SDS011;373;49.342;8.146;2023-11-18T00:31:42;5.75;;;4.65;;
823;SDS011;373;49.342;8.146;2023-11-18T00:37:00;4.07;;;3.72;;
823;SDS011;373;49.342;8.146;2023-11-18T00:40:36;4.65;;;4.25;;
823;SDS011;373;49.342;8.146;2023-11-18T00:46:38;3.85;;;3.53;;
823;SDS011;373;49.342;8.146;2023-11-18T00:49:18;4.43;;;3.88;;
823;SDS011;373;49.342;8.146;2023-11-18T00:51:46;5.38;;;4.88;;
823;SDS011;373;49.342;8.146;2023-11-18T00:55:47;4.60;;;4.20;;
823;SDS011;373;49.342;8.146;2023-11-18T01:03:07;3.83;;;3.50;;
823;SDS011;373;49.342;8.146;2023-11-18T01:09:04;3.95;;;3.65;;
823;SDS011;373;49.342;8.146;2023-11-18T01:12:07;4.28;;;3.88;;
823;SDS011;373;49.342;8.146;2023-11-18T01:14:43;4.38;;;3.75;;
823;SDS011;373;49.342;8.146;2023-11-18T01:17:16;4.57;;;4.15;;
823;SDS011;373;49.342;8.146;2023-11-18T01:20:19;3.70;;;3.40;;
823;SDS011;373;49.342;8.146;2023-11-18T01:23:05;4.15;;;3.75;;
823;SDS011;373;49.342;8.146;2023-11-18T01:25:48;4.85;;;3.83;;
823;SDS011;373;49.342;8.146;2023-11-18T01:29:01;3.50;;;3.20;;
823;SDS011;373;49.342;8.146;2023-11-18T01:31:32;3.60;;;3.30;;
823;SDS011;373;49.342;8.146;2023-11-18T01:34:24;3.45;;;2.72;;
823;SDS011;373;49.342;8.146;2023-11-18T01:37:02;3.55;;;3.22;;
823;SDS011;373;49.342;8.146;2023-11-18T01:39:59;6.25;;;4.00;;
823;SDS011;373;49.342;8.146;2023-11-18T01:42:30;5.30;;;4.07;;
823;SDS011;373;49.342;8.146;2023-11-18T01:45:00;4.82;;;4.10;;
823;SDS011;373;49.342;8.146;2023-11-18T01:47:29;5.22;;;4.40;;
823;SDS011;373;49.342;8.146;2023-11-18T01:49:58;4.90;;;4.45;;
823;SDS011;373;49.342;8.146;2023-11-18T01:52:51;4.05;;;3.75;;
823;SDS011;373;49.342;8.146;2023-11-18T01:55:57;4.47;;;3.60;;
823;SDS011;373;49.342;8.146;2023-11-18T01:58:29;4.35;;;3.97;;
823;SDS011;373;49.342;8.146;2023-11-18T02:01:03;4.10;;;3.70;;
823;SDS011;373;49.342;8.146;2023-11-18T02:03:44;4.43;;;4.03;;
823;SDS011;373;49.342;8.146;2023-11-18T02:06:22;3.95;;;3.50;;
823;SDS011;373;49.342;8.146;2023-11-18T02:08:52;5.45;;;4.07;;
823;SDS011;373;49.342;8.146;2023-11-18T02:11:24;5.78;;;4.03;;
823;SDS011;373;49.342;8.146;2023-11-18T02:14:00;4.47;;;4.07;;
823;SDS011;373;49.342;8.146;2023-11-18T02:16:35;5.57;;;4.40;;
823;SDS011;373;49.342;8.146;2023-11-18T02:19:08;4.80;;;4.40;;
823;SDS011;373;49.342;8.146;2023-11-18T02:21:52;5.15;;;4.65;;
823;SDS011;373;49.342;8.146;2023-11-18T02:24:41;3.92;;;3.63;;
823;SDS011;373;49.342;8.146;2023-11-18T02:27:56;5.00;;;4.28;;
823;SDS011;373;49.342;8.146;2023-11-18T02:35:05;4.43;;;4.03;;
823;SDS011;373;49.342;8.146;2023-11-18T02:38:22;5.15;;;4.65;;
823;SDS011;373;49.342;8.146;2023-11-18T02:45:13;4.90;;;4.00;;
823;SDS011;373;49.342;8.146;2023-11-18T02:47:41;4.70;;;4.30;;
823;SDS011;373;49.342;8.146;2023-11-18T02:50:16;5.95;;;4.68;;
823;SDS011;373;49.342;8.146;2023-11-18T02:53:04;4.57;;;4.18;;
823;SDS011;373;49.342;8.146;2023-11-18T02:55:32;5.13;;;4.72;;
823;SDS011;373;49.342;8.146;2023-11-18T02:58:00;5.18;;;4.68;;
823;SDS011;373;49.342;8.146;2023-11-18T03:00:30;5.20;;;4.80;;
823;SDS011;373;49.342;8.146;2023-11-18T03:02:58;6.47;;;4.75;;
823;SDS011;373;49.342;8.146;2023-11-18T03:05:28;5.93;;;4.55;;
823;SDS011;373;49.342;8.146;2023-11-18T03:07:57;5.25;;;4.78;;
823;SDS011;373;49.342;8.146;2023-11-18T03:10:27;5.05;;;4.53;;
823;SDS011;373;49.342;8.146;2023-11-18T03:12:55;6.50;;;5.88;;
823;SDS011;373;49.342;8.146;2023-11-18T03:15:22;6.22;;;5.63;;
823;SDS011;373;49.342;8.146;2023-11-18T03:17:52;7.70;;;6.90;;
823;SDS011;373;49.342;8.146;2023-11-18T03:20:21;7.70;;;7.00;;
823;SDS011;373;49.342;8.146;2023-11-18T03:22:54;6.97;;;6.28;;
823;SDS011;373;49.342;8.146;2023-11-18T03:25:22;7.25;;;6.43;;
823;SDS011;373;49.342;8.146;2023-11-18T03:27:49;6.95;;;6.25;;
823;SDS011;373;49.342;8.146;2023-11-18T03:30:20;7.20;;;6.50;;
823;SDS011;373;49.342;8.146;2023-11-18T03:32:47;8.98;;;6.47;;
823;SDS011;373;49.342;8.146;2023-11-18T03:35:16;7.63;;;6.93;;
823;SDS011;373;49.342;8.146;2023-11-18T03:37:43;8.68;;;6.97;;
823;SDS011;373;49.342;8.146;2023-11-18T03:40:11;8.43;;;7.60;;
823;SDS011;373;49.342;8.146;2023-11-18T03:42:39;7.72;;;6.88;;
823;SDS011;373;49.342;8.146;2023-11-18T03:45:09;6.95;;;6.25;;
823;SDS011;373;49.342;8.146;2023-11-18T03:47:36;7.28;;;6.68;;
823;SDS011;373;49.342;8.146;2023-11-18T03:50:08;7.60;;;6.75;;
823;SDS011;373;49.342;8.146;2023-11-18T03:52:47;8.27;;;7.45;;
823;SDS011;373;49.342;8.146;2023-11-18T03:55:14;6.53;;;5.95;;
823;SDS011;373;49.342;8.146;2023-11-18T03:57:54;34.40;;;8.40;;
823;SDS011;373;49.342;8.146;2023-11-18T04:05:14;9.75;;;6.93;;
823;SDS011;373;49.342;8.146;2023-11-18T04:07:23;6.88;;;6.25;;
823;SDS011;373;49.342;8.146;2023-11-18T04:10:16;7.53;;;6.50;;
823;SDS011;373;49.342;8.146;2023-11-18T04:13:31;7.20;;;6.47;;
823;SDS011;373;49.342;8.146;2023-11-18T04:16:36;7.40;;;6.70;;
823;SDS011;373;49.342;8.146;2023-11-18T04:19:19;7.82;;;6.78;;
823;SDS011;373;49.342;8.146;2023-11-18T04:21:50;8.02;;;6.18;;
823;SDS011;373;49.342;8.146;2023-11-18T04:24:26;7.22;;;6.53;;
823;SDS011;373;49.342;8.146;2023-11-18T04:26:57;6.75;;;6.15;;
823;SDS011;373;49.342;8.146;2023-11-18T04:29:24;6.85;;;6.25;;
823;SDS011;373;49.342;8.146;2023-11-18T04:31:54;6.55;;;5.93;;
823;SDS011;373;49.342;8.146;2023-11-18T04:34:31;6.30;;;5.80;;
823;SDS011;373;49.342;8.146;2023-11-18T04:37:16;6.82;;;5.90;;
823;SDS011;373;49.342;8.146;2023-11-18T04:39:48;6.82;;;6.22;;
823;SDS011;373;49.342;8.146;2023-11-18T04:42:17;6.40;;;5.85;;
823;SDS011;373;49.342;8.146;2023-11-18T04:44:46;6.82;;;6.18;;
823;SDS011;373;49.342;8.146;2023-11-18T04:47:19;7.30;;;6.60;;
823;SDS011;373;49.342;8.146;2023-11-18T04:49:46;6.28;;;5.68;;
823;SDS011;373;49.342;8.146;2023-11-18T04:52:13;6.85;;;6.15;;
823;SDS011;373;49.342;8.146;2023-11-18T04:54:40;7.78;;;6.53;;
823;SDS011;373;49.342;8.146;2023-11-18T04:57:07;7.50;;;6.80;;
823;SDS011;373;49.342;8.146;2023-11-18T04:59:35;8.75;;;7.97;;
823;SDS011;373;49.342;8.146;2023-11-18T05:02:02;11.02;;;8.52;;
823;SDS011;373;49.342;8.146;2023-11-18T05:04:29;9.88;;;7.82;;
823;SDS011;373;49.342;8.146;2023-11-18T05:06:56;9.07;;;7.82;;
823;SDS011;373;49.342;8.146;2023-11-18T05:09:24;9.10;;;8.00;;
823;SDS011;373;49.342;8.146;2023-11-18T05:11:51;7.85;;;7.05;;
823;SDS011;373;49.342;8.146;2023-11-18T05:14:18;8.65;;;7.95;;
823;SDS011;373;49.342;8.146;2023-11-18T05:16:47;9.13;;;8.23;;
823;SDS011;373;49.342;8.146;2023-11-18T05:19:14;8.85;;;8.02;;
823;SDS011;373;49.342;8.146;2023-11-18T05:21:42;9.02;;;8.13;;
823;SDS011;373;49.342;8.146;2023-11-18T05:24:09;8.38;;;7.68;;
823;SDS011;373;49.342;8.146;2023-11-18T05:26:36;7.15;;;6.45;;
823;SDS011;373;49.342;8.146;2023-11-18T05:29:03;6.53;;;5.93;;
823;SDS011;373;49.342;8.146;2023-11-18T05:31:33;5.88;;;5.38;;
823;SDS011;373;49.342;8.146;2023-11-18T05:34:03;4.95;;;4.35;;
823;SDS011;373;49.342;8.146;2023-11-18T05:36:31;5.22;;;4.72;;
823;SDS011;373;49.342;8.146;2023-11-18T05:39:07;4.22;;;3.83;;
823;SDS011;373;49.342;8.146;2023-11-18T05:41:41;4.50;;;3.58;;
823;SDS011;373;49.342;8.146;2023-11-18T05:44:11;5.22;;;4.72;;
823;SDS011;373;49.342;8.146;2023-11-18T05:46:42;8.60;;;6.60;;
823;SDS011;373;49.342;8.146;2023-11-18T05:49:14;7.18;;;6.18;;
823;SDS011;373;49.342;8.146;2023-11-18T05:51:43;7.93;;;7.05;;
823;SDS011;373;49.342;8.146;2023-11-18T05:54:11;7.82;;;6.13;;
823;SDS011;373;49.342;8.146;2023-11-18T05:56:38;7.80;;;7.03;;
823;SDS011;373;49.342;8.146;2023-11-18T05:59:05;9.15;;;6.55;;
823;SDS011;373;49.342;8.146;2023-11-18T06:01:33;9.00;;;8.00;;
823;SDS011;373;49.342;8.146;2023-11-18T06:04:02;11.27;;;10.27;;
823;SDS011;373;49.342;8.146;2023-11-18T06:06:31;7.97;;;7.28;;
823;SDS011;373;49.342;8.146;2023-11-18T06:08:58;7.28;;;6.68;;
823;SDS011;373;49.342;8.146;2023-11-18T06:11:30;11.40;;;10.30;;
823;SDS011;373;49.342;8.146;2023-11-18T06:14:00;12.68;;;7.72;;
823;SDS011;373;49.342;8.146;2023-11-18T06:16:28;8.48;;;7.63;;
823;SDS011;373;49.342;8.146;2023-11-18T06:18:55;10.25;;;9.18;;
823;SDS011;373;49.342;8.146;2023-11-18T06:21:24;10.60;;;9.13;;
823;SDS011;373;49.342;8.146;2023-11-18T06:23:57;9.90;;;8.90;;
823;SDS011;373;49.342;8.146;2023-11-18T06:26:25;9.60;;;8.60;;
823;SDS011;373;49.342;8.146;2023-11-18T06:28:53;8.80;;;7.70;;
823;SDS011;373;49.342;8.146;2023-11-18T06:31:21;9.35;;;8.40;;
823;SDS011;373;49.342;8.146;2023-11-18T06:33:49;11.05;;;8.68;;
823;SDS011;373;49.342;8.146;2023-11-18T06:36:17;9.05;;;8.20;;
823;SDS011;373;49.342;8.146;2023-11-18T06:38:45;9.68;;;8.25;;
823;SDS011;373;49.342;8.146;2023-11-18T06:41:16;18.60;;;16.60;;
823;SDS011;373;49.342;8.146;2023-11-18T06:43:44;11.82;;;10.63;;
823;SDS011;373;49.342;8.146;2023-11-18T06:46:22;27.63;;;22.83;;
823;SDS011;373;49.342;8.146;2023-11-18T06:48:51;41.50;;;31.05;;
823;SDS011;373;49.342;8.146;2023-11-18T06:51:20;13.32;;;11.93;;
823;SDS011;373;49.342;8.146;2023-11-18T06:53:53;12.73;;;11.05;;
823;SDS011;373;49.342;8.146;2023-11-18T06:56:23;13.02;;;11.20;;
823;SDS011;373;49.342;8.146;2023-11-18T06:58:50;12.35;;;11.13;;
823;SDS011;373;49.342;8.146;2023-11-18T07:01:17;10.38;;;9.38;;
823;SDS011;373;49.342;8.146;2023-11-18T07:03:47;12.02;;;10.75;;
823;SDS011;373;49.342;8.146;2023-11-18T07:06:18;11.07;;;9.45;;
823;SDS011;373;49.342;8.146;2023-11-18T07:08:47;10.57;;;9.32;;
823;SDS011;373;49.342;8.146;2023-11-18T07:11:15;11.15;;;9.77;;
823;SDS011;373;49.342;8.146;2023-11-18T07:13:43;10.77;;;9.68;;
823;SDS011;373;49.342;8.146;2023-11-18T07:16:11;11.90;;;9.23;;
823;SDS011;373;49.342;8.146;2023-11-18T07:18:43;11.00;;;9.95;;
823;SDS011;373;49.342;8.146;2023-11-18T07:21:10;10.20;;;9.18;;
823;SDS011;373;49.342;8.146;2023-11-18T07:23:37;10.63;;;9.65;;
823;SDS011;373;49.342;8.146;2023-11-18T07:26:04;10.20;;;9.18;;
823;SDS011;373;49.342;8.146;2023-11-18T07:28:31;12.15;;;9.93;;
823;SDS011;373;49.342;8.146;2023-11-18T07:31:00;16.35;;;14.50;;
823;SDS011;373;49.342;8.146;2023-11-18T07:33:30;12.65;;;11.30;;
823;SDS011;373;49.342;8.146;2023-11-18T07:35:58;13.70;;;12.25;;
823;SDS011;373;49.342;8.146;2023-11-18T07:38:25;12.13;;;10.52;;
823;SDS011;373;49.342;8.146;2023-11-18T07:40:52;12.38;;;10.93;;
823;SDS011;373;49.342;8.146;2023-11-18T07:43:21;9.70;;;8.70;;
823;SDS011;373;49.342;8.146;2023-11-18T07:45:49;11.02;;;10.00;;
823;SDS011;373;49.342;8.146;2023-11-18T07:48:18;11.13;;;9.95;;
823;SDS011;373;49.342;8.146;2023-11-18T07:50:46;10.38;;;9.13;;
823;SDS011;373;49.342;8.146;2023-11-18T07:53:13;11.30;;;10.13;;
823;SDS011;373;49.342;8.146;2023-11-18T07:55:41;10.15;;;9.23;;
823;SDS011;373;49.342;8.146;2023-11-18T07:58:08;9.43;;;8.52;;
823;SDS011;373;49.342;8.146;2023-11-18T08:00:37;12.50;;;9.70;;
823;SDS011;373;49.342;8.146;2023-11-18T08:03:04;12.50;;;10.07;;
823;SDS011;373;49.342;8.146;2023-11-18T08:05:38;12.57;;;10.35;;
823;SDS011;373;49.342;8.146;2023-11-18T08:08:06;12.05;;;10.20;;
823;SDS011;373;49.342;8.146;2023-11-18T08:10:34;14.80;;;11.82;;
823;SDS011;373;49.342;8.146;2023-11-18T08:13:03;12.00;;;10.75;;
823;SDS011;373;49.342;8.146;2023-11-18T08:15:32;13.60;;;11.30;;
823;SDS011;373;49.342;8.146;2023-11-18T08:17:59;17.38;;;12.30;;
823;SDS011;373;49.342;8.146;2023-11-18T08:20:27;13.30;;;11.52;;
823;SDS011;373;49.342;8.146;2023-11-18T08:22:55;15.48;;;11.88;;
823;SDS011;373;49.342;8.146;2023-11-18T08:25:28;15.70;;;12.13;;
823;SDS011;373;49.342;8.146;2023-11-18T08:28:00;18.40;;;15.35;;
823;SDS011;373;49.342;8.146;2023-11-18T08:30:27;17.40;;;14.35;;
823;SDS011;373;49.342;8.146;2023-11-18T08:32:54;15.27;;;13.00;;
823;SDS011;373;49.342;8.146;2023-11-18T08:35:21;15.48;;;13.30;;
823;SDS011;373;49.342;8.146;2023-11-18T08:37:49;19.67;;;15.05;;
823;SDS011;373;49.342;8.146;2023-11-18T08:40:17;18.67;;;15.52;;
823;SDS011;373;49.342;8.146;2023-11-18T08:42:47;20.63;;;16.15;;
823;SDS011;373;49.342;8.146;2023-11-18T08:45:22;22.15;;;15.32;;
823;SDS011;373;49.342;8.146;2023-11-18T08:47:53;20.58;;;16.63;;
823;SDS011;373;49.342;8.146;2023-11-18T08:50:20;24.20;;;18.25;;
823;SDS011;373;49.342;8.146;2023-11-18T08:52:49;23.50;;;16.15;;
823;SDS011;373;49.342;8.146;2023-11-18T08:55:20;21.88;;;17.02;;
823;SDS011;373;49.342;8.146;2023-11-18T08:57:48;19.75;;;15.55;;
823;SDS011;373;49.342;8.146;2023-11-18T09:00:23;21.67;;;16.85;;
823;SDS011;373;49.342;8.146;2023-11-18T09:03:13;21.88;;;15.93;;
823;SDS011;373;49.342;8.146;2023-11-18T09:05:50;19.42;;;15.02;;
823;SDS011;373;49.342;8.146;2023-11-18T09:08:26;18.58;;;14.77;;
823;SDS011;373;49.342;8.146;2023-11-18T09:10:56;20.10;;;14.88;;
823;SDS011;373;49.342;8.146;2023-11-18T09:13:25;21.27;;;15.95;;
823;SDS011;373;49.342;8.146;2023-11-18T09:15:54;18.52;;;14.82;;
823;SDS011;373;49.342;8.146;2023-11-18T09:18:22;16.48;;;14.15;;
823;SDS011;373;49.342;8.146;2023-11-18T09:20:51;19.15;;;15.05;;
823;SDS011;373;49.342;8.146;2023-11-18T09:23:20;21.10;;;15.43;;
823;SDS011;373;49.342;8.146;2023-11-18T09:25:50;20.27;;;15.25;;
823;SDS011;373;49.342;8.146;2023-11-18T09:28:20;20.08;;;14.98;;
823;SDS011;373;49.342;8.146;2023-11-18T09:30:49;20.50;;;15.18;;
823;SDS011;373;49.342;8.146;2023-11-18T09:33:19;17.00;;;13.88;;
823;SDS011;373;49.342;8.146;2023-11-18T09:35:54;16.50;;;14.25;;
823;SDS011;373;49.342;8.146;2023-11-18T09:38:24;15.95;;;14.25;;
823;SDS011;373;49.342;8.146;2023-11-18T09:40:54;16.92;;;13.57;;
823;SDS011;373;49.342;8.146;2023-11-18T09:43:23;15.35;;;13.13;;
823;SDS011;373;49.342;8.146;2023-11-18T09:45:54;14.02;;;12.52;;
823;SDS011;373;49.342;8.146;2023-11-18T09:48:22;12.63;;;11.25;;
823;SDS011;373;49.342;8.146;2023-11-18T09:50:52;13.85;;;11.98;;
823;SDS011;373;49.342;8.146;2023-11-18T09:53:19;12.48;;;11.15;;
823;SDS011;373;49.342;8.146;2023-11-18T09:55:52;14.02;;;11.07;;
823;SDS011;373;49.342;8.146;2023-11-18T09:58:31;13.23;;;11.05;;
823;SDS011;373;49.342;8.146;2023-11-18T10:01:06;11.90;;;10.00;;
823;SDS011;373;49.342;8.146;2023-11-18T10:03:39;10.90;;;9.80;;
823;SDS011;373;49.342;8.146;2023-11-18T10:06:08;13.68;;;8.90;;
823;SDS011;373;49.342;8.146;2023-11-18T10:08:37;7.78;;;6.97;;
823;SDS011;373;49.342;8.146;2023-11-18T10:11:05;10.93;;;8.00;;
823;SDS011;373;49.342;8.146;2023-11-18T10:13:36;8.75;;;7.95;;
823;SDS011;373;49.342;8.146;2023-11-18T10:16:06;11.30;;;9.25;;
823;SDS011;373;49.342;8.146;2023-11-18T10:18:34;9.27;;;8.27;;
823;SDS011;373;49.342;8.146;2023-11-18T10:21:01;8.27;;;7.55;;
823;SDS011;373;49.342;8.146;2023-11-18T10:23:33;7.55;;;6.70;;
823;SDS011;373;49.342;8.146;2023-11-18T10:26:03;6.72;;;6.07;;
823;SDS011;373;49.342;8.146;2023-11-18T10:28:30;6.93;;;5.93;;
823;SDS011;373;49.342;8.146;2023-11-18T10:31:00;6.13;;;5.30;;
823;SDS011;373;49.342;8.146;2023-11-18T10:33:29;6.18;;;5.55;;
823;SDS011;373;49.342;8.146;2023-11-18T10:35:57;5.93;;;4.75;;
823;SDS011;373;49.342;8.146;2023-11-18T10:38:29;5.68;;;5.13;;
823;SDS011;373;49.342;8.146;2023-11-18T10:40:56;6.85;;;5.70;;
823;SDS011;373;49.342;8.146;2023-11-18T10:43:26;6.45;;;4.93;;
823;SDS011;373;49.342;8.146;2023-11-18T10:46:05;5.95;;;4.78;;
823;SDS011;373;49.342;8.146;2023-11-18T10:48:37;7.13;;;5.63;;
823;SDS011;373;49.342;8.146;2023-11-18T10:51:08;7.15;;;5.50;;
823;SDS011;373;49.342;8.146;2023-11-18T10:53:38;5.38;;;4.88;;
823;SDS011;373;49.342;8.146;2023-11-18T10:56:16;5.50;;;4.72;;
823;SDS011;373;49.342;8.146;2023-11-18T10:58:49;6.00;;;5.35;;
823;SDS011;373;49.342;8.146;2023-11-18T11:01:27;5.68;;;5.18;;
823;SDS011;373;49.342;8.146;2023-11-18T11:03:57;5.70;;;5.10;;
823;SDS011;373;49.342;8.146;2023-11-18T11:06:25;8.13;;;5.32;;
823;SDS011;373;49.342;8.146;2023-11-18T11:08:56;6.00;;;5.50;;
823;SDS011;373;49.342;8.146;2023-11-18T11:11:24;5.97;;;5.38;;
823;SDS011;373;49.342;8.146;2023-11-18T11:13:56;4.80;;;4.40;;
823;SDS011;373;49.342;8.146;2023-11-18T11:16:28;5.93;;;4.80;;
823;SDS011;373;49.342;8.146;2023-11-18T11:19:00;5.70;;;5.20;;
823;SDS011;373;49.342;8.146;2023-11-18T11:21:35;6.20;;;5.32;;
823;SDS011;373;49.342;8.146;2023-11-18T11:24:20;6.15;;;4.78;;
823;SDS011;373;49.342;8.146;2023-11-18T11:27:01;5.55;;;5.05;;
823;SDS011;373;49.342;8.146;2023-11-18T11:29:42;6.03;;;5.43;;
823;SDS011;373;49.342;8.146;2023-11-18T11:32:22;5.93;;;4.93;;
823;SDS011;373;49.342;8.146;2023-11-18T11:34:56;6.25;;;5.63;;
823;SDS011;373;49.342;8.146;2023-11-18T11:37:30;6.40;;;5.82;;
823;SDS011;373;49.342;8.146;2023-11-18T11:40:00;7.20;;;5.45;;
823;SDS011;373;49.342;8.146;2023-11-18T11:42:35;6.32;;;5.75;;
823;SDS011;373;49.342;8.146;2023-11-18T11:45:02;5.10;;;4.70;;
823;SDS011;373;49.342;8.146;2023-11-18T11:47:40;5.38;;;4.88;;
823;SDS011;373;49.342;8.146;2023-11-18T11:50:13;6.50;;;5.85;;
823;SDS011;373;49.342;8.146;2023-11-18T11:52:48;5.97;;;5.38;;
823;SDS011;373;49.342;8.146;2023-11-18T11:55:26;6.35;;;5.85;;
823;SDS011;373;49.342;8.146;2023-11-18T11:58:04;6.05;;;5.45;;
823;SDS011;373;49.342;8.146;2023-11-18T12:00:51;6.97;;;6.20;;
823;SDS011;373;49.342;8.146;2023-11-18T12:03:22;6.43;;;5.82;;
823;SDS011;373;49.342;8.146;2023-11-18T12:05:49;6.88;;;6.18;;
823;SDS011;373;49.342;8.146;2023-11-18T12:08:21;7.07;;;6.13;;
823;SDS011;373;49.342;8.146;2023-11-18T12:10:53;7.65;;;6.15;;
823;SDS011;373;49.342;8.146;2023-11-18T12:13:21;8.48;;;7.32;;
823;SDS011;373;49.342;8.146;2023-11-18T12:15:52;7.20;;;6.50;;
823;SDS011;373;49.342;8.146;2023-11-18T12:18:24;6.65;;;6.03;;
823;SDS011;373;49.342;8.146;2023-11-18T12:20:52;6.88;;;6.20;;
823;SDS011;373;49.342;8.146;2023-11-18T12:23:22;14.00;;;6.75;;
823;SDS011;373;49.342;8.146;2023-11-18T12:25:51;6.22;;;5.63;;
823;SDS011;373;49.342;8.146;2023-11-18T12:28:24;6.53;;;5.78;;
823;SDS011;373;49.342;8.146;2023-11-18T12:30:53;6.93;;;6.07;;
823;SDS011;373;49.342;8.146;2023-11-18T12:36:55;8.18;;;6.03;;
823;SDS011;373;49.342;8.146;2023-11-18T12:42:52;8.95;;;7.50;;
823;SDS011;373;49.342;8.146;2023-11-18T12:45:35;7.25;;;6.25;;
823;SDS011;373;49.342;8.146;2023-11-18T12:48:20;7.47;;;6.70;;
823;SDS011;373;49.342;8.146;2023-11-18T12:50:53;7.57;;;6.88;;
823;SDS011;373;49.342;8.146;2023-11-18T12:53:21;7.28;;;6.57;;
823;SDS011;373;49.342;8.146;2023-11-18T12:55:50;7.03;;;6.32;;
823;SDS011;373;49.342;8.146;2023-11-18T12:58:19;8.15;;;7.35;;
823;SDS011;373;49.342;8.146;2023-11-18T13:00:48;7.93;;;7.22;;
823;SDS011;373;49.342;8.146;2023-11-18T13:03:15;9.52;;;7.68;;
823;SDS011;373;49.342;8.146;2023-11-18T13:05:43;8.57;;;7.72;;
823;SDS011;373;49.342;8.146;2023-11-18T13:08:12;8.30;;;6.30;;
823;SDS011;373;49.342;8.146;2023-11-18T13:10:41;10.95;;;7.63;;
823;SDS011;373;49.342;8.146;2023-11-18T13:13:10;9.63;;;7.72;;
823;SDS011;373;49.342;8.146;2023-11-18T13:15:39;8.15;;;7.32;;
823;SDS011;373;49.342;8.146;2023-11-18T13:18:06;7.90;;;6.97;;
823;SDS011;373;49.342;8.146;2023-11-18T13:20:34;9.10;;;8.05;;
823;SDS011;373;49.342;8.146;2023-11-18T13:23:02;8.68;;;7.78;;
823;SDS011;373;49.342;8.146;2023-11-18T13:25:35;7.93;;;7.10;;
823;SDS011;373;49.342;8.146;2023-11-18T13:28:04;9.30;;;7.35;;
823;SDS011;373;49.342;8.146;2023-11-18T13:30:32;9.10;;;7.90;;
823;SDS011;373;49.342;8.146;2023-11-18T13:33:00;10.00;;;8.13;;
823;SDS011;373;49.342;8.146;2023-11-18T13:35:28;7.88;;;7.15;;
823;SDS011;373;49.342;8.146;2023-11-18T13:37:55;8.93;;;8.05;;
823;SDS011;373;49.342;8.146;2023-11-18T13:40:24;12.40;;;8.68;;
823;SDS011;373;49.342;8.146;2023-11-18T13:43:02;8.80;;;8.00;;
823;SDS011;373;49.342;8.146;2023-11-18T13:45:33;8.40;;;7.45;;
823;SDS011;373;49.342;8.146;2023-11-18T13:48:01;8.43;;;7.10;;
823;SDS011;373;49.342;8.146;2023-11-18T13:50:29;9.57;;;7.78;;
823;SDS011;373;49.342;8.146;2023-11-18T13:52:56;9.13;;;7.43;;
823;SDS011;373;49.342;8.146;2023-11-18T13:55:23;8.68;;;7.88;;
823;SDS011;373;49.342;8.146;2023-11-18T13:57:53;7.68;;;6.85;;
823;SDS011;373;49.342;8.146;2023-11-18T14:00:24;8.80;;;7.85;;
823;SDS011;373;49.342;8.146;2023-11-18T14:02:53;7.95;;;6.82;;
823;SDS011;373;49.342;8.146;2023-11-18T14:05:22;7.35;;;6.65;;
823;SDS011;373;49.342;8.146;2023-11-18T14:07:51;7.75;;;6.85;;
823;SDS011;373;49.342;8.146;2023-11-18T14:10:21;7.60;;;6.75;;
823;SDS011;373;49.342;8.146;2023-11-18T14:13:00;7.15;;;6.40;;
823;SDS011;373;49.342;8.146;2023-11-18T14:15:32;8.93;;;6.90;;
823;SDS011;373;49.342;8.146;2023-11-18T14:18:00;7.30;;;6.45;;
823;SDS011;373;49.342;8.146;2023-11-18T14:20:28;9.80;;;6.97;;
823;SDS011;373;49.342;8.146;2023-11-18T14:22:56;9.52;;;6.55;;
823;SDS011;373;49.342;8.146;2023-11-18T14:25:24;10.18;;;5.93;;
823;SDS011;373;49.342;8.146;2023-11-18T14:27:52;6.13;;;5.53;;
823;SDS011;373;49.342;8.146;2023-11-18T14:30:19;8.80;;;8.00;;
823;SDS011;373;49.342;8.146;2023-11-18T14:32:51;6.50;;;5.72;;
823;SDS011;373;49.342;8.146;2023-11-18T14:35:18;7.53;;;5.65;;
823;SDS011;373;49.342;8.146;2023-11-18T14:37:45;6.63;;;6.00;;
823;SDS011;373;49.342;8.146;2023-11-18T14:40:13;7.97;;;6.22;;
823;SDS011;373;49.342;8.146;2023-11-18T14:42:41;6.65;;;5.45;;
823;SDS011;373;49.342;8.146;2023-11-18T14:45:10;6.45;;;5.72;;
823;SDS011;373;49.342;8.146;2023-11-18T14:47:39;7.85;;;5.63;;
823;SDS011;373;49.342;8.146;2023-11-18T14:50:07;7.65;;;5.32;;
823;SDS011;373;49.342;8.146;2023-11-18T14:52:43;6.97;;;6.15;;
823;SDS011;373;49.342;8.146;2023-11-18T14:55:11;7.28;;;5.65;;
823;SDS011;373;49.342;8.146;2023-11-18T14:57:39;6.00;;;5.25;;
823;SDS011;373;49.342;8.146;2023-11-18T15:00:07;7.15;;;5.13;;
823;SDS011;373;49.342;8.146;2023-11-18T15:02:44;6.22;;;5.38;;
823;SDS011;373;49.342;8.146;2023-11-18T15:05:16;7.78;;;5.30;;
823;SDS011;373;49.342;8.146;2023-11-18T15:07:44;7.32;;;5.90;;
823;SDS011;373;49.342;8.146;2023-11-18T15:10:13;6.13;;;5.53;;
823;SDS011;373;49.342;8.146;2023-11-18T15:12:45;6.15;;;5.35;;
823;SDS011;373;49.342;8.146;2023-11-18T15:15:12;6.43;;;5.72;;
823;SDS011;373;49.342;8.146;2023-11-18T15:17:46;7.25;;;5.13;;
823;SDS011;373;49.342;8.146;2023-11-18T15:20:16;5.25;;;4.75;;
823;SDS011;373;49.342;8.146;2023-11-18T15:22:45;5.95;;;5.00;;
823;SDS011;373;49.342;8.146;2023-11-18T15:25:12;5.00;;;4.60;;
823;SDS011;373;49.342;8.146;2023-11-18T15:27:40;5.82;;;5.00;;
823;SDS011;373;49.342;8.146;2023-11-18T15:30:08;7.90;;;5.55;;
823;SDS011;373;49.342;8.146;2023-11-18T15:32:41;6.30;;;5.32;;
823;SDS011;373;49.342;8.146;2023-11-18T15:35:10;7.45;;;5.57;;
823;SDS011;373;49.342;8.146;2023-11-18T15:37:40;6.85;;;6.07;;
823;SDS011;373;49.342;8.146;2023-11-18T15:40:08;5.88;;;5.38;;
823;SDS011;373;49.342;8.146;2023-11-18T15:42:37;6.18;;;5.57;;
823;SDS011;373;49.342;8.146;2023-11-18T15:45:05;7.05;;;5.53;;
823;SDS011;373;49.342;8.146;2023-11-18T15:47:36;6.90;;;5.22;;
823;SDS011;373;49.342;8.146;2023-11-18T15:50:04;5.63;;;4.88;;
823;SDS011;373;49.342;8.146;2023-11-18T15:52:32;6.63;;;5.05;;
823;SDS011;373;49.342;8.146;2023-11-18T15:55:02;6.07;;;5.25;;
823;SDS011;373;49.342;8.146;2023-11-18T15:57:36;6.88;;;4.90;;
823;SDS011;373;49.342;8.146;2023-11-18T16:00:05;6.20;;;4.90;;
823;SDS011;373;49.342;8.146;2023-11-18T16:02:35;6.10;;;5.03;;
823;SDS011;373;49.342;8.146;2023-11-18T16:05:02;5.28;;;4.75;;
823;SDS011;373;49.342;8.146;2023-11-18T16:07:30;7.32;;;5.63;;
823;SDS011;373;49.342;8.146;2023-11-18T16:09:58;7.35;;;5.78;;
823;SDS011;373;49.342;8.146;2023-11-18T16:12:26;8.23;;;5.60;;
823;SDS011;373;49.342;8.146;2023-11-18T16:14:54;8.45;;;5.43;;
823;SDS011;373;49.342;8.146;2023-11-18T16:17:24;7.30;;;6.00;;
823;SDS011;373;49.342;8.146;2023-11-18T16:20:12;7.32;;;5.55;;
823;SDS011;373;49.342;8.146;2023-11-18T16:22:44;5.78;;;5.15;;
823;SDS011;373;49.342;8.146;2023-11-18T16:25:33;5.78;;;5.10;;
823;SDS011;373;49.342;8.146;2023-11-18T16:28:02;8.80;;;5.72;;
823;SDS011;373;49.342;8.146;2023-11-18T16:30:32;6.35;;;5.78;;
823;SDS011;373;49.342;8.146;2023-11-18T16:33:00;6.57;;;5.97;;
823;SDS011;373;49.342;8.146;2023-11-18T16:35:28;6.68;;;6.05;;
823;SDS011;373;49.342;8.146;2023-11-18T16:37:55;8.13;;;6.38;;
823;SDS011;373;49.342;8.146;2023-11-18T16:40:24;7.95;;;6.18;;
823;SDS011;373;49.342;8.146;2023-11-18T16:42:52;9.15;;;5.63;;
823;SDS011;373;49.342;8.146;2023-11-18T16:45:22;7.43;;;6.18;;
823;SDS011;373;49.342;8.146;2023-11-18T16:47:52;8.32;;;6.47;;
823;SDS011;373;49.342;8.146;2023-11-18T16:50:25;6.72;;;5.95;;
823;SDS011;373;49.342;8.146;2023-11-18T16:52:53;6.95;;;6.22;;
823;SDS011;373;49.342;8.146;2023-11-18T16:55:21;6.75;;;6.10;;
823;SDS011;373;49.342;8.146;2023-11-18T16:57:49;6.95;;;6.28;;